Time;durP1;ratioP1;P1;durP2;ratioP2;P2;SDS_P1;SDS_P2;PMS_P1;PMS_P2;Temp;Humidity;BMP_temperature;BMP_pressure;BME280_temperature;BME280_humidity;BME280_pressure;Samples;Min_cycle;Max_cycle;Signal;HPM_P1;HPM_P2
2022/01/28 00:00:17;;;;;;;23.10;13.40;;;;;;;-4.51;100.00;61544.88;6078179;23;20251;-76
2022/01/28 00:03:00;;;;;;;26.45;14.07;;;;;;;-4.56;100.00;61534.31;6078795;23;20225;-76
2022/01/28 00:05:28;;;;;;;23.95;13.63;;;;;;;-4.56;100.00;61536.78;6078607;23;20560;-76
2022/01/28 00:07:57;;;;;;;17.10;10.20;;;;;;;-4.59;100.00;61526.28;6078778;23;20413;-75
2022/01/28 00:10:25;;;;;;;21.33;10.70;;;;;;;-4.71;100.00;61522.50;6078447;23;20200;-76
2022/01/28 00:13:09;;;;;;;18.00;9.18;;;;;;;-4.72;100.00;61523.47;6078498;23;20177;-75
2022/01/28 00:15:42;;;;;;;17.30;9.27;;;;;;;-4.69;100.00;61524.03;6079126;23;20200;-77
2022/01/28 00:18:35;;;;;;;13.13;8.25;;;;;;;-4.71;100.00;61519.50;6078438;23;20181;-77
2022/01/28 00:38:03;;;;;;;13.80;7.68;;;;;;;-4.93;100.00;61502.56;6076846;23;20460;-76
2022/01/28 00:40:32;;;;;;;16.63;7.82;;;;;;;-4.90;100.00;61505.59;6077742;23;20208;-76
2022/01/28 00:42:59;;;;;;;17.88;8.43;;;;;;;-4.90;100.00;61507.59;6078472;23;20177;-76
2022/01/28 00:45:27;;;;;;;13.63;7.35;;;;;;;-4.87;100.00;61503.19;6078377;23;20221;-77
2022/01/28 00:47:54;;;;;;;17.77;7.60;;;;;;;-4.89;100.00;61504.16;6078064;23;20513;-76
2022/01/28 00:50:21;;;;;;;12.73;7.38;;;;;;;-4.92;100.00;61498.59;6078501;23;20269;-76
2022/01/28 00:52:50;;;;;;;16.33;8.45;;;;;;;-4.95;100.00;61502.47;6077490;23;20173;-75
2022/01/28 00:55:17;;;;;;;17.02;7.95;;;;;;;-4.99;100.00;61496.44;6077633;23;20200;-76
2022/01/28 00:57:43;;;;;;;12.55;7.63;;;;;;;-5.01;100.00;61494.41;6078396;23;20169;-75
2022/01/28 01:00:12;;;;;;;19.75;8.55;;;;;;;-4.96;100.00;61498.97;6078183;23;20216;-76
2022/01/28 01:02:39;;;;;;;13.32;7.70;;;;;;;-4.98;100.00;61490.00;6078646;23;20272;-76
2022/01/28 01:05:07;;;;;;;16.48;8.73;;;;;;;-4.92;100.00;61500.59;6077726;23;20422;-76
2022/01/28 01:07:34;;;;;;;12.70;8.05;;;;;;;-4.95;100.00;61498.03;6078289;23;20209;-76
2022/01/28 01:10:03;;;;;;;17.33;6.88;;;;;;;-4.98;100.00;61496.94;6078067;23;20248;-76
2022/01/28 01:12:33;;;;;;;13.65;7.80;;;;;;;-4.91;100.00;61507.06;6077355;23;20188;-76
2022/01/28 01:15:00;;;;;;;14.77;8.35;;;;;;;-4.93;100.00;61502.03;6078505;23;20240;-75
2022/01/28 01:17:33;;;;;;;15.10;8.30;;;;;;;-4.85;100.00;61510.69;6078352;23;20180;-76
2022/01/28 01:20:14;;;;;;;13.52;6.95;;;;;;;-4.81;100.00;61514.78;6078149;23;20216;-75
2022/01/28 01:22:41;;;;;;;10.02;5.45;;;;;;;-4.81;100.00;61512.31;6078203;23;20401;-76
2022/01/28 01:25:21;;;;;;;8.05;5.00;;;;;;;-4.80;100.00;61510.34;6078272;23;20203;-76
2022/01/28 01:27:53;;;;;;;10.73;5.97;;;;;;;-4.88;100.00;61504.66;6077790;23;20164;-76
2022/01/28 01:30:20;;;;;;;10.32;5.55;;;;;;;-4.90;100.00;61505.13;6077666;23;20409;-76
2022/01/28 01:32:47;;;;;;;10.57;5.85;;;;;;;-4.84;100.00;61501.81;6077459;23;20173;-77
2022/01/28 01:35:14;;;;;;;10.60;6.15;;;;;;;-4.92;100.00;61498.09;6078165;23;20197;-76
2022/01/28 01:37:41;;;;;;;12.35;6.72;;;;;;;-4.90;100.00;61503.13;6077628;23;20169;-77
2022/01/28 01:40:11;;;;;;;14.75;5.55;;;;;;;-4.92;100.00;61501.09;6077949;23;20200;-77
2022/01/28 01:42:47;;;;;;;12.50;6.97;;;;;;;-4.96;100.00;61496.50;6076647;23;20488;-76
2022/01/28 01:53:24;;;;;;;15.98;6.47;;;;;;;-5.00;100.00;61489.94;6080503;23;20201;-76
2022/01/28 01:55:54;;;;;;;13.18;6.50;;;;;;;-4.91;100.00;61499.13;6078863;23;20268;-76
2022/01/28 01:58:25;;;;;;;14.88;6.65;;;;;;;-4.85;100.00;61507.72;6079800;23;20169;-75
2022/01/28 02:00:52;;;;;;;10.15;6.80;;;;;;;-4.86;100.00;61514.13;6080129;23;20212;-76
2022/01/28 02:03:18;;;;;;;11.52;5.85;;;;;;;-4.94;100.00;61503.50;6079609;23;20209;-78
2022/01/28 02:05:46;;;;;;;10.75;5.85;;;;;;;-4.94;100.00;61498.53;6079208;23;20204;-76
2022/01/28 02:08:12;;;;;;;10.30;6.53;;;;;;;-4.96;100.00;61491.53;6079862;23;20390;-77
2022/01/28 02:10:39;;;;;;;14.45;6.43;;;;;;;-4.92;100.00;61503.56;6080291;23;20248;-77
2022/01/28 02:13:08;;;;;;;13.50;6.10;;;;;;;-4.89;100.00;61504.16;6080334;23;20172;-75
2022/01/28 02:15:34;;;;;;;9.75;6.05;;;;;;;-4.85;100.00;61507.72;6082519;23;20195;-77
2022/01/28 02:18:01;;;;;;;12.25;6.78;;;;;;;-4.89;100.00;61511.59;6084738;23;20184;-77
2022/01/28 02:20:34;;;;;;;12.43;6.32;;;;;;;-4.88;100.00;61510.13;6085917;23;20208;-76
2022/01/28 02:23:01;;;;;;;13.65;6.38;;;;;;;-5.02;100.00;61497.84;6087206;23;20470;-77
2022/01/28 02:25:30;;;;;;;13.50;7.03;;;;;;;-5.02;100.00;61488.41;6085934;23;20443;-76
2022/01/28 02:28:00;;;;;;;13.70;5.97;;;;;;;-5.19;100.00;61480.50;6084824;23;20173;-76
2022/01/28 02:30:27;;;;;;;17.38;7.60;;;;;;;-5.12;100.00;61475.22;6086479;23;20196;-77
2022/01/28 02:33:00;;;;;;;8.18;5.60;;;;;;;-5.15;100.00;61472.69;6079806;23;20181;-76
2022/01/28 02:35:29;;;;;;;12.25;6.10;;;;;;;-5.15;100.00;61479.59;6079958;23;20576;-77
2022/01/28 02:37:56;;;;;;;11.65;6.43;;;;;;;-5.15;100.00;61477.66;6079373;23;20209;-76
2022/01/28 02:40:24;;;;;;;12.35;7.32;;;;;;;-5.19;100.00;61473.56;6079323;23;20212;-76
2022/01/28 02:42:57;;;;;;;16.42;7.95;;;;;;;-5.12;100.00;61487.63;6080107;23;20419;-77
2022/01/28 02:45:28;;;;;;;11.45;6.50;;;;;;;-5.13;100.00;61477.22;6080016;23;20192;-78
2022/01/28 02:48:00;;;;;;;14.55;8.10;;;;;;;-5.13;100.00;61474.22;6079969;23;20165;-77
2022/01/28 02:50:29;;;;;;;15.38;7.32;;;;;;;-5.04;100.00;61488.34;6079482;23;20215;-76
2022/01/28 02:53:09;;;;;;;18.00;8.48;;;;;;;-5.07;100.00;61483.31;6079458;23;20230;-77
2022/01/28 02:55:40;;;;;;;15.13;8.23;;;;;;;-5.06;100.00;61486.31;6079172;23;20551;-77
2022/01/28 02:58:20;;;;;;;12.80;7.38;;;;;;;-5.06;100.00;61488.78;6079303;23;20477;-77
2022/01/28 03:00:48;;;;;;;13.85;7.40;;;;;;;-5.06;100.00;61483.81;6079531;23;20254;-75
2022/01/28 03:03:18;;;;;;;11.90;6.57;;;;;;;-4.99;100.00;61486.00;6078728;23;20528;-76
2022/01/28 03:05:45;;;;;;;13.70;7.85;;;;;;;-5.03;100.00;61494.84;6079918;23;20197;-76
2022/01/28 03:08:13;;;;;;;14.60;7.97;;;;;;;-4.95;100.00;61500.00;6079094;23;20477;-76
2022/01/28 03:10:51;;;;;;;14.98;6.07;;;;;;;-4.87;100.00;61506.19;6080132;23;20513;-76
2022/01/28 03:13:56;;;;;;;13.13;7.18;;;;;;;-4.78;100.00;61519.84;6078640;23;20376;-78
2022/01/28 03:16:22;;;;;;;14.77;8.38;;;;;;;-4.74;100.00;61521.41;6078851;23;20176;-77
2022/01/28 03:18:53;;;;;;;11.60;6.50;;;;;;;-4.68;100.00;61524.53;6079729;23;20461;-76
2022/01/28 03:21:25;;;;;;;12.38;7.68;;;;;;;-4.64;100.00;61526.66;6078830;23;20200;-77
2022/01/28 03:23:54;;;;;;;17.17;7.35;;;;;;;-4.55;100.00;61537.78;6078507;23;20250;-77
2022/01/28 03:26:23;;;;;;;14.98;7.28;;;;;;;-4.55;100.00;61540.28;6078452;23;20224;-76
2022/01/28 03:28:50;;;;;;;11.50;6.45;;;;;;;-4.68;100.00;61520.09;6081482;23;20173;-77
2022/01/28 03:31:17;;;;;;;12.43;6.53;;;;;;;-4.78;100.00;61515.38;6089995;23;20293;-77
2022/01/28 03:33:44;;;;;;;12.02;5.72;;;;;;;-4.78;100.00;61515.38;6084898;23;20399;-77
2022/01/28 03:36:12;;;;;;;13.13;6.25;;;;;;;-4.89;100.00;61501.69;6079824;23;20200;-77
2022/01/28 03:38:40;;;;;;;15.13;6.88;;;;;;;-4.93;100.00;61499.56;6079759;23;20197;-78
2022/01/28 03:41:15;;;;;;;13.35;5.88;;;;;;;-4.94;100.00;61486.13;6079965;23;20212;-76
2022/01/28 03:43:42;;;;;;;16.73;6.47;;;;;;;-5.01;100.00;61496.88;6077553;23;20473;-77
2022/01/28 03:46:09;;;;;;;12.98;7.32;;;;;;;-4.96;100.00;61494.53;6078213;23;20236;-77
2022/01/28 03:48:36;;;;;;;14.60;7.15;;;;;;;-4.96;100.00;61491.53;6078767;23;20177;-77
2022/01/28 03:51:03;;;;;;;9.70;6.32;;;;;;;-4.96;100.00;61501.47;6079483;23;20240;-75
2022/01/28 03:53:31;;;;;;;18.67;7.93;;;;;;;-5.00;100.00;61487.97;6078286;23;20176;-77
2022/01/28 03:55:58;;;;;;;22.58;8.52;;;;;;;-5.00;100.00;61497.38;6078660;23;20197;-77
2022/01/28 03:58:27;;;;;;;17.92;8.40;;;;;;;-4.96;100.00;61497.03;6079394;23;20229;-77
2022/01/28 04:00:55;;;;;;;10.73;6.65;;;;;;;-4.97;100.00;61495.50;6078605;23;20200;-77
2022/01/28 04:03:47;;;;;;;18.02;7.15;;;;;;;-4.98;100.00;61489.50;6077406;23;20234;-77
2022/01/28 04:11:54;;;;;;;14.27;7.07;;;;;;;-5.00;100.00;61487.97;6078069;23;20241;-76
2022/01/28 04:14:37;;;;;;;12.30;6.88;;;;;;;-5.01;100.00;61493.88;6078702;23;20200;-77
2022/01/28 04:17:21;;;;;;;19.98;6.85;;;;;;;-4.91;100.00;61504.09;6078215;23;20493;-77
2022/01/28 04:19:49;;;;;;;16.85;6.45;;;;;;;-4.91;100.00;61496.63;6077246;23;20232;-76
2022/01/28 04:22:15;;;;;;;11.55;5.82;;;;;;;-4.97;100.00;61490.53;6078718;23;20177;-77
2022/01/28 04:24:42;;;;;;;14.73;6.53;;;;;;;-4.91;100.00;61504.59;6078373;23;20185;-77
2022/01/28 04:27:09;;;;;;;13.95;5.97;;;;;;;-4.94;100.00;61496.59;6077415;23;20193;-76
2022/01/28 04:29:38;;;;;;;23.60;6.70;;;;;;;-4.96;100.00;61491.53;6078177;23;20203;-76
2022/01/28 04:32:05;;;;;;;17.13;7.63;;;;;;;-5.02;100.00;61487.91;6078429;23;20193;-77
2022/01/28 04:34:32;;;;;;;14.23;6.78;;;;;;;-4.99;100.00;61490.97;6077142;23;20212;-77
2022/01/28 04:37:08;;;;;;;15.23;7.88;;;;;;;-4.95;100.00;61502.47;6078880;23;20179;-76
2022/01/28 04:39:42;;;;;;;17.63;8.50;;;;;;;-4.83;100.00;61507.78;6078316;23;20192;-76
2022/01/28 04:42:18;;;;;;;18.48;7.10;;;;;;;-4.77;100.00;61511.44;6077595;23;20199;-77
2022/01/28 04:44:56;;;;;;;13.68;6.72;;;;;;;-4.73;100.00;61517.47;6078216;23;20224;-77
2022/01/28 04:47:30;;;;;;;20.95;7.13;;;;;;;-4.69;100.00;61529.00;6079296;23;20160;-76
2022/01/28 04:50:06;;;;;;;11.50;6.68;;;;;;;-4.82;100.00;61510.78;6078895;23;20199;-76
2022/01/28 04:52:51;;;;;;;20.20;6.93;;;;;;;-4.98;100.00;61499.94;6078774;23;20429;-76
2022/01/28 04:58:14;;;;;;;11.57;6.57;;;;;;;-5.32;100.00;61462.81;6061018;23;20176;-78
2022/01/28 05:00:54;;;;;;;15.20;7.20;;;;;;;-5.27;100.00;61464.91;6080965;23;20428;-77
2022/01/28 05:03:41;;;;;;;14.13;6.60;;;;;;;-5.28;100.00;61468.84;6087568;23;20188;-77
2022/01/28 05:06:46;;;;;;;9.43;6.13;;;;;;;-5.30;100.00;61466.81;6079553;23;20200;-75
2022/01/28 05:15:15;;;;;;;16.25;7.22;;;;;;;-5.20;100.00;61477.50;6077912;23;20544;-76
2022/01/28 05:28:48;;;;;;;17.20;7.63;;;;;;;-5.65;100.00;61424.22;6077311;23;20187;-77
2022/01/28 05:31:15;;;;;;;27.70;10.65;;;;;;;-5.67;100.00;61426.59;6077579;23;20244;-76
2022/01/28 05:33:43;;;;;;;23.60;9.75;;;;;;;-5.60;100.00;61436.22;6078028;23;20420;-77
2022/01/28 05:36:10;;;;;;;19.67;9.00;;;;;;;-5.57;100.00;61434.81;6077062;23;20394;-77
2022/01/28 05:38:38;;;;;;;21.55;10.38;;;;;;;-5.60;100.00;61433.75;6077895;23;20175;-77
2022/01/28 05:41:05;;;;;;;27.85;9.82;;;;;;;-5.65;100.00;61426.69;6078711;23;20209;-77
2022/01/28 05:43:32;;;;;;;28.17;11.00;;;;;;;-5.60;100.00;61429.31;6078370;23;20176;-77
2022/01/28 05:45:59;;;;;;;22.40;11.75;;;;;;;-5.53;100.00;61438.91;6077986;23;20248;-78
2022/01/28 05:48:26;;;;;;;31.38;13.15;;;;;;;-5.61;100.00;61428.28;6078056;23;20180;-78
2022/01/28 05:50:54;;;;;;;21.55;10.15;;;;;;;-5.57;100.00;61431.84;6079114;23;20197;-77
2022/01/28 05:53:21;;;;;;;23.00;10.90;;;;;;;-5.56;100.00;61433.38;6079069;23;20177;-79
2022/01/28 05:55:48;;;;;;;15.48;8.75;;;;;;;-5.48;100.00;61441.53;6080222;23;20193;-77
2022/01/28 05:58:15;;;;;;;17.30;9.30;;;;;;;-5.38;100.00;61451.19;6080455;23;20477;-78
2022/01/28 06:00:41;;;;;;;15.98;7.45;;;;;;;-5.29;100.00;61462.84;6078592;23;20233;-77
2022/01/28 06:03:09;;;;;;;20.75;6.32;;;;;;;-5.31;100.00;61458.84;6078497;23;20519;-78
2022/01/28 06:05:36;;;;;;;21.15;9.80;;;;;;;-5.32;100.00;61462.81;6081884;23;20215;-79
2022/01/28 06:08:05;;;;;;;15.98;7.38;;;;;;;-5.24;100.00;61467.94;6081851;23;20177;-78
2022/01/28 06:10:31;;;;;;;16.02;7.97;;;;;;;-5.13;100.00;61474.22;6079058;23;20264;-79
2022/01/28 06:12:58;;;;;;;20.48;7.97;;;;;;;-5.22;100.00;61473.00;6079704;23;20232;-78
2022/01/28 06:15:25;;;;;;;17.25;6.72;;;;;;;-5.16;100.00;61476.63;6079119;23;20248;-77
2022/01/28 06:17:52;;;;;;;12.57;6.45;;;;;;;-5.12;100.00;61485.66;6082209;23;20185;-77
2022/01/28 06:20:19;;;;;;;16.23;7.78;;;;;;;-4.99;100.00;61498.41;6084487;23;20208;-78
2022/01/28 06:22:48;;;;;;;24.50;8.35;;;;;;;-4.90;100.00;61505.59;6081746;23;20473;-78
2022/01/28 06:25:17;;;;;;;23.92;9.55;;;;;;;-4.76;100.00;61509.97;6083104;23;20229;-77
2022/01/28 06:27:44;;;;;;;19.30;9.00;;;;;;;-4.68;100.00;61527.53;6082590;23;20177;-78
2022/01/28 06:30:12;;;;;;;18.92;8.88;;;;;;;-4.71;100.00;61517.53;6084868;23;20247;-77
2022/01/28 06:32:39;;;;;;;18.50;9.07;;;;;;;-4.63;100.00;61527.16;6087315;23;20172;-77
2022/01/28 06:35:08;;;;;;;21.52;9.68;;;;;;;-4.49;100.00;61541.44;6085956;23;20193;-77
2022/01/28 06:37:37;;;;;;;20.33;9.48;;;;;;;-4.33;100.00;61565.72;6085100;23;20168;-78
2022/01/28 06:40:06;;;;;;;19.55;10.23;;;;;;;-4.25;100.00;61566.44;6085001;23;20217;-78
2022/01/28 06:42:35;;;;;;;20.83;8.68;;;;;;;-4.12;100.00;61582.19;6087229;23;20177;-77
2022/01/28 06:45:04;;;;;;;22.02;9.82;;;;;;;-4.02;100.00;61586.91;6087442;23;20203;-79
2022/01/28 06:47:31;;;;;;;16.52;8.45;;;;;;;-3.97;100.00;61592.03;6088387;23;20200;-80
2022/01/28 06:49:58;;;;;;;15.27;8.82;;;;;;;-3.95;100.00;61602.03;6089577;23;20193;-81
2022/01/28 06:52:25;;;;;;;14.85;8.85;;;;;;;-3.78;100.00;61614.41;6086136;23;20192;-81
2022/01/28 06:54:52;;;;;;;19.15;9.40;;;;;;;-3.95;100.00;61599.03;6084749;23;20200;-80
2022/01/28 06:57:20;;;;;;;18.30;8.35;;;;;;;-3.73;100.00;61619.00;6084653;23;20173;-79
2022/01/28 06:59:48;;;;;;;16.75;7.72;;;;;;;-3.61;100.00;61633.75;6086067;23;20221;-79
2022/01/28 07:02:20;;;;;;;17.50;7.50;;;;;;;-3.51;100.00;61641.47;6091094;23;20200;-81
2022/01/28 07:04:47;;;;;;;17.48;8.15;;;;;;;-3.30;100.00;61660.44;6089227;23;20193;-79
2022/01/28 07:07:14;;;;;;;22.92;9.95;;;;;;;-3.06;100.00;61689.41;6084601;23;20177;-78
2022/01/28 07:09:41;;;;;;;21.40;10.50;;;;;;;-2.53;100.00;61746.06;6084438;23;20216;-78
2022/01/28 07:12:08;;;;;;;20.70;9.80;;;;;;;-1.83;100.00;61812.13;6084098;23;20224;-78
2022/01/28 07:14:35;;;;;;;22.55;11.65;;;;;;;-1.19;100.00;61880.63;6083841;23;20204;-80
2022/01/28 07:17:04;;;;;;;17.30;8.13;;;;;;;-0.89;100.00;61902.81;6084768;23;20173;-79
2022/01/28 07:19:31;;;;;;;27.48;9.48;;;;;;;-0.92;99.27;61902.25;6085674;23;20193;-78
2022/01/28 07:21:58;;;;;;;16.98;7.43;;;;;;;-1.06;97.42;61890.41;6083211;23;20532;-77
2022/01/28 07:24:25;;;;;;;19.50;8.13;;;;;;;-1.13;98.08;61885.75;6083363;23;20197;-77
2022/01/28 07:26:53;;;;;;;17.83;8.05;;;;;;;-1.29;97.07;61869.88;6087158;23;20179;-77
2022/01/28 07:29:22;;;;;;;23.02;7.28;;;;;;;-1.51;97.17;61845.38;6080625;23;20552;-77
2022/01/28 07:31:49;;;;;;;15.07;7.50;;;;;;;-1.43;97.93;61853.03;6082030;23;20201;-77
2022/01/28 07:34:17;;;;;;;18.85;8.02;;;;;;;-1.34;98.06;61865.28;6081766;23;20212;-78
2022/01/28 07:36:44;;;;;;;20.83;8.50;;;;;;;-1.66;97.07;61832.53;6080629;23;20169;-77
2022/01/28 07:39:11;;;;;;;23.15;9.05;;;;;;;-1.57;97.89;61839.22;6079072;23;20229;-78
2022/01/28 07:41:39;;;;;;;20.77;9.05;;;;;;;-1.68;97.48;61834.97;6079156;23;20204;-78
2022/01/28 07:44:06;;;;;;;16.85;7.50;;;;;;;-1.79;97.97;61819.22;6084370;23;20392;-79
2022/01/28 07:46:33;;;;;;;18.77;9.50;;;;;;;-1.79;98.79;61818.72;6085797;23;20217;-79
2022/01/28 07:49:01;;;;;;;19.02;8.00;;;;;;;-1.89;99.01;61811.50;6086292;23;20201;-78
2022/01/28 07:51:29;;;;;;;20.50;9.35;;;;;;;-2.02;99.71;61797.69;6089981;23;20173;-78
2022/01/28 07:53:57;;;;;;;15.70;7.70;;;;;;;-2.05;100.00;61790.13;6085626;23;20175;-78
2022/01/28 07:56:24;;;;;;;19.15;9.15;;;;;;;-1.79;100.00;61818.72;6083148;23;20175;-78
2022/01/28 07:58:52;;;;;;;15.88;8.98;;;;;;;-1.71;100.00;61824.41;6081402;23;20184;-78
2022/01/28 08:01:19;;;;;;;13.95;8.65;;;;;;;-1.61;99.15;61832.66;6082278;23;20212;-78
2022/01/28 08:03:45;;;;;;;14.90;7.97;;;;;;;-1.42;99.06;61849.09;6084192;23;20169;-78
2022/01/28 08:06:13;;;;;;;16.42;8.23;;;;;;;-1.57;96.85;61844.22;6086948;23;20197;-77
2022/01/28 08:08:41;;;;;;;21.10;9.50;;;;;;;-1.41;97.09;61855.63;6094484;23;20161;-77
2022/01/28 08:11:08;;;;;;;15.57;9.43;;;;;;;-1.24;96.54;61882.47;6084851;23;20244;-78
2022/01/28 08:13:35;;;;;;;26.88;9.88;;;;;;;-1.15;95.88;61881.72;6084666;23;20220;-78
2022/01/28 08:16:02;;;;;;;14.85;9.60;;;;;;;-0.89;96.18;61903.34;6084830;23;20189;-78
2022/01/28 08:18:29;;;;;;;22.77;10.00;;;;;;;-0.76;95.29;61921.63;6082707;23;20395;-78
2022/01/28 08:20:56;;;;;;;21.98;9.15;;;;;;;-0.90;93.93;61909.28;6083413;23;20259;-77
2022/01/28 08:23:23;;;;;;;23.95;11.38;;;;;;;-0.79;93.93;61921.06;6082766;23;20169;-78
2022/01/28 08:25:54;;;;;;;19.05;9.38;;;;;;;-0.73;93.28;61924.19;6083669;23;20460;-79
2022/01/28 08:28:22;;;;;;;22.67;9.93;;;;;;;-0.59;94.50;61943.53;6085935;23;20189;-79
2022/01/28 08:30:49;;;;;;;29.40;10.45;;;;;;;-0.46;93.84;61956.84;6088144;23;20203;-80
2022/01/28 08:33:17;;;;;;;25.00;10.57;;;;;;;-0.23;94.91;61973.44;6086321;23;20172;-78
2022/01/28 08:35:51;;;;;;;26.02;11.27;;;;;;;0.07;93.54;62005.63;6085467;23;20192;-79
2022/01/28 08:38:24;;;;;;;17.38;9.38;;;;;;;0.35;92.64;62034.31;6082253;23;20212;-77
2022/01/28 08:40:53;;;;;;;21.85;9.45;;;;;;;0.43;89.77;62043.03;6081569;23;20248;-78
2022/01/28 08:43:21;;;;;;;18.05;9.35;;;;;;;0.50;87.67;62047.22;6082558;23;20173;-79
2022/01/28 08:45:48;;;;;;;21.08;9.43;;;;;;;0.68;90.61;62068.16;6088307;23;20209;-78
2022/01/28 08:48:21;;;;;;;17.48;9.10;;;;;;;0.80;86.69;62078.47;6090386;23;20204;-78
2022/01/28 08:50:48;;;;;;;18.08;8.65;;;;;;;1.15;84.14;62116.88;6092269;23;20221;-78
2022/01/28 08:53:15;;;;;;;15.82;9.30;;;;;;;0.94;83.92;62094.81;6090554;23;20177;-78
2022/01/28 08:55:42;;;;;;;24.85;9.98;;;;;;;0.47;85.12;62047.16;6091239;23;20185;-79
2022/01/28 08:58:12;;;;;;;23.98;10.65;;;;;;;0.62;87.62;62062.00;6088862;23;20177;-77
2022/01/28 09:00:39;;;;;;;23.05;10.05;;;;;;;0.43;88.64;62045.03;6091931;23;20199;-79
2022/01/28 09:03:06;;;;;;;21.20;12.07;;;;;;;0.02;85.92;62001.00;6087369;23;20176;-80
2022/01/28 09:05:33;;;;;;;25.45;11.00;;;;;;;-0.08;87.30;61995.78;6086146;23;20197;-79
2022/01/28 09:08:05;;;;;;;23.63;12.32;;;;;;;0.07;91.40;62008.63;6086168;23;20252;-78
2022/01/28 09:13:24;;;;;;;29.40;11.50;;;;;;;0.38;87.82;62042.41;6081336;23;20187;-79
2022/01/28 09:15:53;;;;;;;21.90;10.88;;;;;;;0.69;87.47;62069.19;6085769;23;20200;-78
2022/01/28 09:18:20;;;;;;;24.08;11.73;;;;;;;1.01;88.49;62102.00;6080865;23;20345;-78
2022/01/28 09:20:47;;;;;;;20.10;10.38;;;;;;;1.35;87.67;62138.88;6082325;23;20205;-78
2022/01/28 09:23:15;;;;;;;17.67;10.65;;;;;;;1.51;81.77;62150.28;6081687;23;20177;-78
2022/01/28 09:25:42;;;;;;;29.00;11.77;;;;;;;1.77;83.50;62182.50;6082397;23;20197;-79
2022/01/28 09:30:52;;;;;;;24.80;12.38;;;;;;;2.24;80.94;62225.22;6025452;23;20252;-79
2022/01/28 09:33:18;;;;;;;23.85;10.93;;;;;;;2.35;76.99;62244.56;6031613;23;20201;-79
2022/01/28 09:35:46;;;;;;;22.95;9.95;;;;;;;2.33;71.08;62236.97;6028613;23;20206;-78
2022/01/28 09:38:13;;;;;;;20.80;9.63;;;;;;;2.22;75.83;62228.19;6029058;23;20185;-78
2022/01/28 09:40:40;;;;;;;21.33;9.30;;;;;;;2.57;74.96;62261.63;6030144;23;20704;-78
2022/01/28 09:43:08;;;;;;;27.02;12.05;;;;;;;3.04;75.30;62309.91;6032267;23;20209;-79
2022/01/28 09:45:36;;;;;;;26.58;11.15;;;;;;;3.60;74.17;62366.97;6030855;23;20253;-79
2022/01/28 09:48:04;;;;;;;20.52;9.95;;;;;;;3.41;64.12;62352.47;6030546;23;20169;-77
2022/01/28 09:50:33;;;;;;;22.63;9.85;;;;;;;3.33;70.18;62342.25;6034266;23;20202;-78
2022/01/28 09:53:01;;;;;;;21.15;10.38;;;;;;;2.98;65.81;62300.72;6035179;23;20182;-77
2022/01/28 09:55:28;;;;;;;18.67;8.85;;;;;;;3.10;74.12;62315.56;6031365;23;20190;-77
2022/01/28 09:57:56;;;;;;;20.75;10.73;;;;;;;3.26;67.30;62334.53;6023067;23;20233;-77
2022/01/28 10:00:25;;;;;;;19.52;9.60;;;;;;;3.43;66.36;62352.53;6023834;23;20202;-77
2022/01/28 10:02:54;;;;;;;24.92;10.85;;;;;;;3.45;67.58;62352.06;6025016;23;20210;-78
2022/01/28 10:05:26;;;;;;;25.17;9.70;;;;;;;3.20;67.02;62328.88;6026214;23;20206;-78
2022/01/28 10:08:08;;;;;;;25.10;10.52;;;;;;;3.07;66.81;62317.53;6027936;23;20173;-77
2022/01/28 10:10:48;;;;;;;22.73;9.73;;;;;;;3.23;67.78;62329.44;6026735;23;20257;-78
2022/01/28 10:13:20;;;;;;;21.10;9.43;;;;;;;3.28;66.23;62337.09;6025900;23;20223;-79
2022/01/28 10:15:56;;;;;;;24.25;10.98;;;;;;;3.23;65.08;62334.47;6025723;23;20200;-78
2022/01/28 10:18:35;;;;;;;37.08;11.55;;;;;;;3.48;68.87;62357.16;6033543;23;20174;-78
2022/01/28 10:21:16;;;;;;;24.95;11.20;;;;;;;3.46;68.19;62355.09;6028437;23;20201;-79
2022/01/28 10:23:43;;;;;;;28.20;12.30;;;;;;;3.53;65.66;62360.31;6029018;23;20234;-77
2022/01/28 10:26:11;;;;;;;18.48;11.32;;;;;;;3.66;66.52;62375.16;6028269;23;20217;-77
2022/01/28 10:28:51;;;;;;;23.20;11.52;;;;;;;3.74;68.00;62378.88;6031638;23;20171;-77
2022/01/28 10:31:18;;;;;;;25.23;12.30;;;;;;;3.67;63.43;62376.19;6034796;23;20194;-77
2022/01/28 10:33:45;;;;;;;25.45;13.10;;;;;;;3.29;64.85;62335.63;6026569;23;20174;-77
2022/01/28 10:36:25;;;;;;;21.80;10.73;;;;;;;3.34;67.18;62338.25;6024682;23;20258;-77
2022/01/28 10:38:57;;;;;;;24.17;12.35;;;;;;;2.98;65.36;62306.28;6024434;23;20174;-77
2022/01/28 10:41:26;;;;;;;23.77;14.02;;;;;;;2.41;69.33;62247.19;6023545;23;20223;-77
2022/01/28 10:43:55;;;;;;;34.05;13.82;;;;;;;2.22;71.98;62228.72;6024258;23;20178;-77
2022/01/28 10:46:23;;;;;;;29.60;13.65;;;;;;;2.11;79.41;62214.91;6028356;23;20178;-77
2022/01/28 10:48:58;;;;;;;30.90;14.15;;;;;;;2.20;77.09;62226.66;6027711;23;20238;-76
2022/01/28 10:51:40;;;;;;;36.47;14.55;;;;;;;1.94;80.09;62197.44;6027973;23;20194;-77
2022/01/28 10:54:09;;;;;;;30.10;15.57;;;;;;;2.21;82.93;62225.16;6026998;23;20179;-76
2022/01/28 10:56:55;;;;;;;33.92;18.27;;;;;;;2.28;79.52;62234.88;6027937;23;20478;-76
2022/01/28 10:59:24;;;;;;;36.90;17.48;;;;;;;2.54;83.59;62260.56;6025704;23;20202;-77
2022/01/28 11:01:51;;;;;;;44.10;17.88;;;;;;;2.75;79.66;62287.13;6024297;23;20206;-76
2022/01/28 11:04:19;;;;;;;33.25;16.85;;;;;;;2.95;73.77;62302.69;6028703;23;20194;-76
2022/01/28 11:06:50;;;;;;;45.33;19.70;;;;;;;2.57;77.57;62261.13;6027880;23;20182;-76
2022/01/28 11:09:22;;;;;;;36.75;19.60;;;;;;;2.36;74.81;62243.06;6028976;23;20217;-77
2022/01/28 11:12:02;;;;;;;46.88;20.52;;;;;;;2.71;73.75;62278.53;6029525;23;20166;-76
2022/01/28 11:14:29;;;;;;;35.13;18.40;;;;;;;3.01;74.32;62309.34;6031455;23;20213;-76
2022/01/28 11:16:57;;;;;;;41.08;21.27;;;;;;;3.37;79.87;62343.31;6025795;23;20178;-77
2022/01/28 11:19:27;;;;;;;47.05;19.65;;;;;;;3.30;72.87;62336.66;6026139;23;20205;-77
2022/01/28 11:22:42;;;;;;;40.67;19.65;;;;;;;3.18;78.15;62326.31;6023237;23;20212;-77
2022/01/28 11:25:40;;;;;;;44.17;20.48;;;;;;;3.22;72.97;62330.44;5910798;24;20207;-76
2022/01/28 11:28:09;;;;;;;47.10;21.02;;;;;;;3.53;71.11;62362.28;6007616;23;20217;-77
2022/01/28 11:30:37;;;;;;;37.35;21.48;;;;;;;3.57;69.53;62365.91;6022938;23;20517;-75
2022/01/28 11:33:06;;;;;;;41.60;21.83;;;;;;;3.60;67.36;62361.94;6024095;23;20212;-77
2022/01/28 11:35:37;;;;;;;44.15;22.05;;;;;;;3.71;69.80;62385.84;6023862;23;20253;-78
2022/01/28 11:38:38;;;;;;;44.92;21.63;;;;;;;3.94;67.72;62401.41;6023747;23;20494;-77
2022/01/28 11:41:10;;;;;;;40.67;21.40;;;;;;;4.07;69.47;62414.81;6022994;23;20197;-77
2022/01/28 11:43:49;;;;;;;42.80;21.50;;;;;;;4.31;69.89;62439.50;6022663;23;20558;-77
2022/01/28 11:46:24;;;;;;;40.22;22.27;;;;;;;4.11;68.71;62421.94;6021994;23;20198;-76
2022/01/28 11:49:10;;;;;;;46.53;22.83;;;;;;;4.30;70.51;62438.47;6021922;23;20178;-76
2022/01/28 11:51:39;;;;;;;44.47;24.55;;;;;;;4.30;66.97;62438.97;6024233;23;20205;-77
2022/01/28 11:54:10;;;;;;;48.58;22.25;;;;;;;4.35;72.41;62444.13;6023566;23;20475;-77
2022/01/28 11:56:38;;;;;;;37.15;20.92;;;;;;;4.45;69.90;62454.41;6022577;23;20174;-76
2022/01/28 11:59:07;;;;;;;42.05;20.00;;;;;;;4.57;68.22;62468.78;6024179;23;20222;-77
2022/01/28 12:02:08;;;;;;;32.85;17.98;;;;;;;4.63;71.39;62475.47;6025310;23;20181;-77
2022/01/28 12:04:40;;;;;;;33.53;17.88;;;;;;;4.68;68.38;62480.63;6023387;23;20194;-77
2022/01/28 12:07:13;;;;;;;39.22;18.02;;;;;;;4.82;71.21;62493.97;6024015;23;20224;-76
2022/01/28 12:09:43;;;;;;;31.63;17.80;;;;;;;4.91;72.07;62501.25;6023390;23;20198;-77
2022/01/28 12:12:12;;;;;;;35.42;18.00;;;;;;;4.61;65.73;62475.41;6023734;23;20174;-78
2022/01/28 12:15:10;;;;;;;35.50;17.10;;;;;;;4.57;69.89;62471.31;6025805;23;20205;-77
2022/01/28 12:17:43;;;;;;;32.30;15.30;;;;;;;4.51;77.75;62460.59;6027017;23;20225;-79
2022/01/28 12:20:26;;;;;;;23.45;13.52;;;;;;;4.64;74.98;62473.97;6028065;23;20219;-78
2022/01/28 12:23:24;;;;;;;21.05;12.77;;;;;;;4.61;72.83;62470.88;6005287;23;20453;-78
2022/01/28 12:25:57;;;;;;;17.88;9.50;;;;;;;4.47;79.60;62458.47;6026056;23;20201;-80
2022/01/28 12:28:25;;;;;;;19.55;9.93;;;;;;;4.46;77.82;62455.44;6028565;23;20174;-78
2022/01/28 12:30:59;;;;;;;14.40;8.15;;;;;;;4.40;80.34;62448.75;6028598;23;20254;-78
2022/01/28 12:33:28;;;;;;;8.57;6.20;;;;;;;4.38;81.92;62449.22;6026485;23;20178;-77